x

South Santa Rosa Is. Ca (46069) Wave Buoy

11:50pm - Fri 28th Apr 2017 All times are PDT. -7 hours from GMT.

  • Sig Wave height 9.5ft
  • Swell Direction
  • Peak Period 10s
  • Average Period 7s
  • Wind
    22mph, 29mph gusts
  • Sea Temp 52°f
  • 空気 Temp 53°f
  • Sea Pressure 1012.2mb
  • South Santa Rosa Is. Ca
  • South Santa Rosa Is. Ca

More Historic Weather Station data

Upgrade to MSW Pro to gain access to the past 30 days of data for over 8000 Wavebouys and Weather Stations around the globe.

Join Pro

Comparision Forecast

View Surf forecast
   
Fri 04/28 11:50pm 9.5ft 10s 7s 22 29 mph 1012.2mb 52f 53f
10:50pm 10ft 11s 7s 25 31 mph 1012.1mb 52f 53f
9:50pm 10ft 9s 7s 29 36 mph 1011.1mb 52f 54f
8:50pm 9.5ft 10s 7s 27 34 mph 1010.8mb 52f 54f
7:50pm 9.5ft 10s 7s 20 27 mph 1011.2mb 52f 54f
6:50pm 10ft 8s  -  22 29 mph 1010.9mb 52f 54f
5:50pm 11ft 10s 7s 25 31 mph 1010.5mb 52f 54f
4:50pm 12ft 9s 7s 29 34 mph 1010.1mb 52f 54f
3:50pm 11ft 9s 7s 31 38 mph 1010.3mb 52f 54f
2:50pm 11ft 9s 7s 29 36 mph 1011mb 52f 54f
1:50pm 11ft 10s 7s 29 36 mph 1011.3mb 52f 54f
12:50pm 11ft 9s 7s 29 36 mph 1011.6mb 52f 54f
11:50am 10ft 10s 7s 31 38 mph 1012.1mb 52f 54f
10:50am 11ft 9s 7s 31 38 mph 1012.2mb 52f 53f
9:50am 11.5ft 9s 7s 31 38 mph 1011.9mb 52f 53f
8:50am 12.5ft 9s 7s 31 38 mph 1011.8mb 52f 53f
7:50am 12.5ft 9s 7s 31 38 mph 1011.6mb 52f 53f
6:50am 13ft 10s 7s 34 40 mph 1011mb 52f 54f
3:50am 12.5ft 10s 7s 31 38 mph 1010.5mb 52f 54f
2:50am 13ft 9s 7s 31 38 mph 1010.3mb 52f 54f
1:50am 12ft 10s 7s 34 43 mph 1010.5mb 52f 54f
12:50am 12ft 10s 7s 31 38 mph 1010.9mb 52f 54f
Thu 04/27 11:50pm 12ft 10s 7s 29 36 mph 1011.4mb 52f 54f
10:50pm 12.5ft 10s 7s 29 34 mph 1011.4mb 52f 54f
9:50pm 11.5ft 9s 7s 31 38 mph 1011.5mb 52f 55f
8:50pm 12ft 9s 7s 29 36 mph 1010.8mb 52f 55f
7:50pm 11.5ft 8s 7s 31 38 mph 1010.5mb 52f 55f
6:50pm 11.5ft 9s 7s 29 36 mph 1010.6mb 52f 54f
4:50pm 11ft 8s 7s 29 38 mph 1010.5mb 52f 55f
3:50pm 11.5ft 8s 7s 29 36 mph 1011.3mb 52f 55f
2:50pm 10.5ft 9s 6s 31 38 mph 1011.4mb 52f 55f
1:50pm 10.5ft 9s 6s 29 36 mph 1011.6mb 52f 54f
12:50pm 11ft 9s 6s 34 40 mph 1011.6mb 52f 54f
11:50am 11ft 8s 7s 31 38 mph 1012.3mb 52f 54f
10:50am 10ft 9s 6s 34 38 mph 1012mb 52f 54f
9:50am 11ft 9s 7s 31 38 mph 1012mb 52f 54f
8:50am 11ft 9s 7s 31 38 mph 1011.9mb 52f 53f
7:50am 10.5ft 8s 6s 34 43 mph 1011.8mb 52f 53f
6:50am 10.5ft 8s 6s 34 43 mph 1011.5mb 52f 53f
5:50am 9ft 8s 6s 31 40 mph 1011.5mb 52f 53f
4:50am 9.5ft 8s 6s 34 45 mph 1011.2mb 52f 54f
3:50am 9ft 8s 6s 34 43 mph 1011.4mb 52f 54f
2:50am 9.5ft 7s 6s 34 40 mph 1011.9mb 52f 53f
1:50am 8ft 7s 6s 27 36 mph 1013.2mb 52f 54f
12:50am 8.5ft 6s 6s 29 36 mph 1013.1mb 53f 54f
Wed 04/26 11:50pm 8.5ft 7s 6s 31 38 mph 1012.6mb 53f 54f
10:50pm 8.5ft 8s 6s 31 38 mph 1012.9mb 53f 54f
9:50pm 8ft 7s 6s 27 34 mph 1013.1mb 53f 54f
8:50pm 8ft 7s 6s 29 36 mph 1012.8mb 53f 54f
7:50pm 8ft 7s 6s 29 36 mph 1012.6mb 53f 55f
6:50pm 8ft 7s 6s 29 36 mph 1012.9mb 53f 55f
4:50pm 8ft 7s 6s 29 36 mph 1013.4mb 53f 56f
3:50pm 8.5ft 7s 6s 31 36 mph 1013.6mb 53f 56f
2:50pm 8.5ft 7s 6s 29 34 mph 1014.4mb 53f 56f
1:50pm 8.5ft 7s 6s 29 36 mph 1014.3mb 53f 55f
12:50pm 9ft 7s 6s 27 31 mph 1014.6mb 53f 55f
11:50am 9ft 9s 6s 27 31 mph 1015.5mb 53f 54f
10:50am 8ft 7s 6s 27 31 mph 1015.1mb 53f 54f
9:50am 8.5ft 7s 6s 29 36 mph 1015.1mb 53f 54f
8:50am 9ft 8s 6s 29 34 mph 1014.9mb 53f 54f
7:50am 10ft 7s 6s 29 38 mph 1014.3mb 53f 55f
6:50am 10ft 8s 6s 36 43 mph 1012.5mb 53f 55f
5:50am 9.5ft 8s 6s 29 38 mph 1012.3mb 53f 55f
4:50am 10ft 8s 7s 29 36 mph 1013.2mb 53f 54f
3:50am 9.5ft 8s 6s 36 45 mph 1012.6mb 53f 54f
2:50am 10.5ft 8s 6s 29 36 mph 1013.5mb 53f 54f
1:50am 10ft 8s 6s 31 36 mph 1013.8mb 53f 55f
12:50am 10ft 8s 6s 36 45 mph 1013.6mb 53f 55f
Tue 04/25 11:50pm 10ft 8s 6s 29 34 mph 1015.1mb 54f 55f
10:50pm 10ft 11s 6s 27 36 mph 1015.5mb 54f 55f
9:50pm 10.5ft 9s 7s 29 36 mph 1015.1mb 54f 55f
8:50pm 10.5ft 8s 7s 29 36 mph 1014.5mb 54f 55f
7:50pm 11ft 8s 7s 27 31 mph 1014.2mb 54f 55f
6:50pm 10.5ft 8s 7s 31 38 mph 1013.3mb 54f 55f
5:50pm 11ft 11s 7s 31 40 mph 1013.5mb 54f 55f
4:50pm 11ft 11s 7s 31 38 mph 1013.6mb 54f 55f
3:50pm 10.5ft 8s 7s 31 43 mph 1014.4mb 54f 55f
2:50pm 9.5ft 11s 7s 31 40 mph 1015.3mb 54f 55f
1:50pm 10ft 12s 7s 29 38 mph 1015.7mb 54f 55f
12:50pm 9ft 11s 6s 29 36 mph 1016mb 54f 55f
11:50am 10ft 12s 7s 25 31 mph 1016.7mb 54f 55f
10:50am 9.5ft 8s 7s 27 31 mph 1016.6mb 54f 54f
9:50am 9.5ft 8s 6s 25 31 mph 1015.6mb 54f 54f
8:50am 9.5ft 11s 6s 27 34 mph 1015.1mb 54f 54f
7:50am 9ft 8s 6s 31 38 mph 1014.5mb 54f 54f